Time,TemperatureF,DewpointF,PressureIn,WindDirection,WindDirectionDegrees,WindSpeedMPH,WindSpeedGustMPH,Humidity,HourlyPrecipIn,Conditions,Clouds,dailyrainin,SolarRadiationWatts/m^2,SoftwareType,DateUTC
2013-02-18 00:02:00,39.8,32.2,30.11,NNE,30,7.0,11.0,74,0.00,,,0.00,0,Wunderground v.1.15,2013-02-17 22:02:00,
2013-02-18 00:12:00,39.7,31.8,30.11,North,355,9.0,9.0,73,0.00,,,0.00,0,Wunderground v.1.15,2013-02-17 22:12:00,
2013-02-18 00:22:00,39.7,31.8,30.11,ENE,58,9.0,9.0,73,0.00,,,0.00,0,Wunderground v.1.15,2013-02-17 22:22:00,
2013-02-18 00:32:00,39.6,32.3,30.11,NNE,26,6.0,7.0,75,0.00,,,0.00,0,Wunderground v.1.15,2013-02-17 22:32:00,
2013-02-18 00:42:00,39.7,31.8,30.12,NNE,33,7.0,7.0,73,0.00,,,0.00,0,Wunderground v.1.15,2013-02-17 22:42:00,
2013-02-18 00:52:00,39.6,31.7,30.12,NNE,14,9.0,10.0,73,0.00,,,0.00,0,Wunderground v.1.15,2013-02-17 22:52:00,
2013-02-18 01:02:00,39.6,31.7,30.12,NNE,27,8.0,8.0,73,0.00,,,0.00,0,Wunderground v.1.15,2013-02-17 23:02:00,
2013-02-18 01:12:00,39.7,33.1,30.11,North,9,8.0,8.0,77,0.00,,,0.00,0,Wunderground v.1.15,2013-02-17 23:12:00,
2013-02-18 01:22:00,39.3,31.4,30.11,NE,36,8.0,8.0,73,0.00,,,0.00,0,Wunderground v.1.15,2013-02-17 23:22:00,
2013-02-18 01:32:00,39.2,32.6,30.11,NNE,15,7.0,7.0,77,0.00,,,0.00,0,Wunderground v.1.15,2013-02-17 23:32:00,
2013-02-18 01:42:00,39.2,31.3,30.11,ENE,61,6.0,6.0,73,0.00,,,0.00,0,Wunderground v.1.15,2013-02-17 23:42:00,
2013-02-18 01:52:00,39.1,31.8,30.11,NNE,28,5.0,5.0,75,0.00,,,0.00,0,Wunderground v.1.15,2013-02-17 23:52:00,
2013-02-18 02:02:00,39.4,31.5,30.11,North,349,6.0,6.0,73,0.00,,,0.00,0,Wunderground v.1.15,2013-02-18 00:02:00,
2013-02-18 02:12:00,39.4,31.8,30.11,ENE,63,5.0,5.0,74,0.00,,,0.00,0,Wunderground v.1.15,2013-02-18 00:12:00,
2013-02-18 02:22:00,39.3,31.7,30.11,NNE,28,4.0,6.0,74,0.00,,,0.00,0,Wunderground v.1.15,2013-02-18 00:22:00,
2013-02-18 02:32:00,39.4,31.8,30.11,NNE,14,6.0,6.0,74,0.00,,,0.00,0,Wunderground v.1.15,2013-02-18 00:32:00,
2013-02-18 02:42:00,39.2,31.6,30.11,NNE,21,6.0,7.0,74,0.00,,,0.00,0,Wunderground v.1.15,2013-02-18 00:42:00,
2013-02-18 02:52:00,39.2,31.6,30.10,NNE,24,6.0,7.0,74,0.00,,,0.00,0,Wunderground v.1.15,2013-02-18 00:52:00,
2013-02-18 03:02:00,39.2,31.6,30.10,NE,56,6.0,6.0,74,0.00,,,0.00,0,Wunderground v.1.15,2013-02-18 01:02:00,
2013-02-18 03:12:00,39.2,31.9,30.10,ENE,61,5.0,5.0,75,0.00,,,0.00,0,Wunderground v.1.15,2013-02-18 01:12:00,
2013-02-18 03:22:00,39.2,31.9,30.10,NNE,13,4.0,5.0,75,0.00,,,0.00,0,Wunderground v.1.15,2013-02-18 01:22:00,
2013-02-18 03:32:00,39.2,31.9,30.09,NE,38,5.0,7.0,75,0.00,,,0.00,0,Wunderground v.1.15,2013-02-18 01:32:00,
2013-02-18 03:42:00,39.1,31.8,30.09,NNE,18,6.0,8.0,75,0.00,,,0.00,0,Wunderground v.1.15,2013-02-18 01:42:00,
2013-02-18 03:52:00,39.2,31.9,30.09,NE,34,5.0,5.0,75,0.00,,,0.00,0,Wunderground v.1.15,2013-02-18 01:52:00,
2013-02-18 04:02:00,39.4,31.8,30.09,NE,54,5.0,5.0,74,0.00,,,0.00,0,Wunderground v.1.15,2013-02-18 02:02:00,
2013-02-18 04:22:00,39.5,32.2,30.10,NNE,28,4.0,5.0,75,0.00,,,0.00,0,Wunderground v.1.15,2013-02-18 02:22:00,
2013-02-18 04:32:00,39.2,31.9,30.10,North,5,4.0,4.0,75,0.00,,,0.00,0,Wunderground v.1.15,2013-02-18 02:32:00,
2013-02-18 04:42:00,39.3,32.4,30.10,NNE,16,4.0,4.0,76,0.00,,,0.00,0,Wunderground v.1.15,2013-02-18 02:42:00,
2013-02-18 04:52:00,39.3,32.4,30.10,North,9,3.0,4.0,76,0.00,,,0.00,0,Wunderground v.1.15,2013-02-18 02:52:00,
2013-02-18 05:02:00,39.2,32.3,30.10,NNE,26,5.0,5.0,76,0.00,,,0.00,0,Wunderground v.1.15,2013-02-18 03:02:00,
2013-02-18 05:12:00,39.4,32.5,30.10,NNE,22,5.0,5.0,76,0.00,,,0.00,0,Wunderground v.1.15,2013-02-18 03:12:00,
2013-02-18 05:22:00,39.5,32.9,30.10,ENE,61,4.0,4.0,77,0.00,,,0.00,0,Wunderground v.1.15,2013-02-18 03:22:00,
2013-02-18 05:32:00,39.4,31.8,30.10,North,349,5.0,5.0,74,0.00,,,0.00,0,Wunderground v.1.15,2013-02-18 03:32:00,
2013-02-18 05:42:00,39.6,33.0,30.10,NNE,13,5.0,5.0,77,0.00,,,0.00,0,Wunderground v.1.15,2013-02-18 03:42:00,
2013-02-18 05:52:00,39.3,31.4,30.10,North,10,5.0,7.0,73,0.00,,,0.00,0,Wunderground v.1.15,2013-02-18 03:52:00,
2013-02-18 06:02:00,39.2,31.3,30.10,NNE,32,7.0,7.0,73,0.00,,,0.00,0,Wunderground v.1.15,2013-02-18 04:02:00,
2013-02-18 06:12:00,39.5,32.2,30.10,NNE,15,5.0,5.0,75,0.00,,,0.00,0,Wunderground v.1.15,2013-02-18 04:12:00,
2013-02-18 06:22:00,39.5,31.6,30.10,North,11,6.0,6.0,73,0.00,,,0.00,0,Wunderground v.1.15,2013-02-18 04:22:00,
2013-02-18 06:32:00,39.5,31.6,30.11,NNE,19,5.0,5.0,73,0.00,,,0.00,0,Wunderground v.1.15,2013-02-18 04:32:00,
2013-02-18 06:42:00,39.3,31.4,30.11,North,360,6.0,8.0,73,0.00,,,0.00,0,Wunderground v.1.15,2013-02-18 04:42:00,
2013-02-18 06:52:00,39.2,31.3,30.11,NNW,344,5.0,5.0,73,0.00,,,0.00,0,Wunderground v.1.15,2013-02-18 04:52:00,
2013-02-18 07:02:00,39.5,31.9,30.11,NNE,19,2.0,2.0,74,0.00,,,0.00,0,Wunderground v.1.15,2013-02-18 05:02:00,
2013-02-18 07:12:00,39.6,32.0,30.12,North,5,2.0,8.0,74,0.00,,,0.00,0,Wunderground v.1.15,2013-02-18 05:12:00,
2013-02-18 07:32:00,39.7,31.8,30.12,NNW,348,4.0,7.0,73,0.00,,,0.00,18,Wunderground v.1.15,2013-02-18 05:32:00,
2013-02-18 07:42:00,39.9,32.3,30.12,NNE,30,4.0,4.0,74,0.00,,,0.00,49,Wunderground v.1.15,2013-02-18 05:42:00,
2013-02-18 07:52:00,39.9,31.9,30.12,North,355,4.0,6.0,73,0.00,,,0.00,98,Wunderground v.1.15,2013-02-18 05:52:00,
2013-02-18 08:02:00,40.0,32.0,30.13,NNW,348,5.0,5.0,73,0.00,,,0.00,76,Wunderground v.1.15,2013-02-18 06:02:00,
2013-02-18 08:12:00,40.1,32.8,30.13,North,5,5.0,7.0,75,0.00,,,0.00,58,Wunderground v.1.15,2013-02-18 06:12:00,
2013-02-18 08:22:00,39.8,32.5,30.13,NNW,342,7.0,10.0,75,0.00,,,0.00,54,Wunderground v.1.15,2013-02-18 06:22:00,
2013-02-18 08:32:00,39.6,32.7,30.13,NNE,15,8.0,10.0,76,0.00,,,0.00,65,Wunderground v.1.15,2013-02-18 06:32:00,
2013-02-18 08:42:00,39.7,33.4,30.13,NNW,335,7.0,7.0,78,0.00,,,0.00,58,Wunderground v.1.15,2013-02-18 06:42:00,
2013-02-18 08:52:00,40.0,33.7,30.13,NNE,32,4.0,4.0,78,0.00,,,0.00,69,Wunderground v.1.15,2013-02-18 06:52:00,
2013-02-18 09:02:00,40.1,33.8,30.13,NNW,330,6.0,6.0,78,0.00,,,0.00,70,Wunderground v.1.15,2013-02-18 07:02:00,
2013-02-18 09:12:00,39.9,33.9,30.13,NE,44,7.0,7.0,79,0.00,,,0.00,139,Wunderground v.1.15,2013-02-18 07:12:00,
2013-02-18 09:22:00,40.3,33.3,30.13,North,360,6.0,10.0,76,0.00,,,0.00,172,Wunderground v.1.15,2013-02-18 07:22:00,
2013-02-18 09:32:00,40.6,33.0,30.13,NNE,15,8.0,8.0,74,0.00,,,0.00,292,Wunderground v.1.15,2013-02-18 07:32:00,
2013-02-18 09:42:00,41.4,33.4,30.13,NNE,25,7.0,9.0,73,0.00,,,0.00,343,Wunderground v.1.15,2013-02-18 07:42:00,
2013-02-18 09:52:00,41.2,32.9,30.13,NNE,22,7.0,7.0,72,0.00,,,0.00,93,Wunderground v.1.15,2013-02-18 07:52:00,
2013-02-18 10:22:00,41.0,32.3,30.13,North,5,6.0,6.0,71,0.00,,,0.00,105,Wunderground v.1.15,2013-02-18 08:22:00,
2013-02-18 10:32:00,41.6,32.5,30.13,NE,55,6.0,7.0,70,0.00,,,0.00,517,Wunderground v.1.15,2013-02-18 08:32:00,
2013-02-18 10:42:00,42.4,32.2,30.13,NE,34,6.0,6.0,67,0.00,,,0.00,561,Wunderground v.1.15,2013-02-18 08:42:00,
2013-02-18 10:52:00,42.6,32.0,30.13,NE,40,6.0,6.0,66,0.00,,,0.00,448,Wunderground v.1.15,2013-02-18 08:52:00,
2013-02-18 11:02:00,42.6,32.8,30.13,NNE,28,7.0,7.0,68,0.00,,,0.00,220,Wunderground v.1.15,2013-02-18 09:02:00,
2013-02-18 11:12:00,43.0,32.8,30.13,North,5,9.0,10.0,67,0.00,,,0.00,232,Wunderground v.1.15,2013-02-18 09:12:00,
2013-02-18 11:22:00,42.6,32.8,30.13,NNE,24,9.0,10.0,68,0.00,,,0.00,251,Wunderground v.1.15,2013-02-18 09:22:00,
2013-02-18 11:32:00,43.2,33.0,30.13,NNE,20,7.0,8.0,67,0.00,,,0.00,680,Wunderground v.1.15,2013-02-18 09:32:00,
2013-02-18 11:42:00,43.0,33.5,30.13,NNE,17,8.0,8.0,69,0.00,,,0.00,225,Wunderground v.1.15,2013-02-18 09:42:00,
2013-02-18 12:02:00,42.4,32.6,30.13,NNW,342,9.0,9.0,68,0.00,,,0.00,207,Wunderground v.1.15,2013-02-18 10:02:00,
2013-02-18 12:12:00,42.7,32.5,30.13,NNW,347,9.0,12.0,67,0.00,,,0.00,302,Wunderground v.1.15,2013-02-18 10:12:00,
2013-02-18 12:22:00,43.2,32.2,30.12,NNW,346,9.0,11.0,65,0.00,,,0.00,267,Wunderground v.1.15,2013-02-18 10:22:00,
2013-02-18 12:42:00,43.3,31.9,30.12,North,5,7.0,7.0,64,0.00,,,0.00,309,Wunderground v.1.15,2013-02-18 10:42:00,
2013-02-18 13:02:00,43.5,31.7,30.11,NNE,19,6.0,10.0,63,0.00,,,0.00,292,Wunderground v.1.15,2013-02-18 11:02:00,
2013-02-18 13:12:00,43.2,31.8,30.12,North,351,9.0,12.0,64,0.00,,,0.00,668,Wunderground v.1.15,2013-02-18 11:12:00,
2013-02-18 13:22:00,44.1,31.9,30.11,NNW,338,9.0,9.0,62,0.00,,,0.00,638,Wunderground v.1.15,2013-02-18 11:22:00,
2013-02-18 13:32:00,43.6,31.4,30.11,NNE,24,8.0,9.0,62,0.00,,,0.00,190,Wunderground v.1.15,2013-02-18 11:32:00,
2013-02-18 13:42:00,44.9,31.8,30.11,NE,37,7.0,12.0,60,0.00,,,0.00,640,Wunderground v.1.15,2013-02-18 11:42:00,
2013-02-18 13:52:00,44.8,32.2,30.11,NNW,330,8.0,11.0,61,0.00,,,0.00,380,Wunderground v.1.15,2013-02-18 11:52:00,
2013-02-18 14:02:00,44.4,31.4,30.11,NE,35,9.0,11.0,60,0.00,,,0.00,243,Wunderground v.1.15,2013-02-18 12:02:00,
2013-02-18 14:12:00,44.1,31.5,30.11,NNE,21,6.0,6.0,61,0.00,,,0.00,192,Wunderground v.1.15,2013-02-18 12:12:00,
2013-02-18 14:32:00,44.5,31.5,30.11,NNE,12,9.0,13.0,60,0.00,,,0.00,199,Wunderground v.1.15,2013-02-18 12:32:00,
2013-02-18 14:42:00,44.3,31.7,30.11,NNE,17,8.0,8.0,61,0.00,,,0.00,446,Wunderground v.1.15,2013-02-18 12:42:00,
2013-02-18 14:52:00,44.2,30.8,30.11,NNW,342,6.0,10.0,59,0.00,,,0.00,436,Wunderground v.1.15,2013-02-18 12:52:00,
2013-02-18 15:02:00,44.7,31.2,30.11,NNE,21,7.0,7.0,59,0.00,,,0.00,420,Wunderground v.1.15,2013-02-18 13:02:00,
2013-02-18 15:12:00,45.3,30.5,30.11,North,9,7.0,7.0,56,0.00,,,0.00,422,Wunderground v.1.15,2013-02-18 13:12:00,
2013-02-18 15:22:00,44.6,31.1,30.11,NNE,17,10.0,11.0,59,0.00,,,0.00,149,Wunderground v.1.15,2013-02-18 13:22:00,
2013-02-18 15:32:00,43.7,31.1,30.11,North,5,8.0,12.0,61,0.00,,,0.00,132,Wunderground v.1.15,2013-02-18 13:32:00,
2013-02-18 15:42:00,43.1,31.0,30.11,NE,34,8.0,8.0,62,0.00,,,0.00,79,Wunderground v.1.15,2013-02-18 13:42:00,
2013-02-18 15:52:00,42.5,30.8,30.11,NNE,18,8.0,9.0,63,0.00,,,0.00,84,Wunderground v.1.15,2013-02-18 13:52:00,
2013-02-18 16:02:00,42.3,31.0,30.11,NNW,346,7.0,7.0,64,0.00,,,0.00,79,Wunderground v.1.15,2013-02-18 14:02:00,
2013-02-18 16:12:00,41.9,30.2,30.11,NNE,13,8.0,8.0,63,0.00,,,0.00,95,Wunderground v.1.15,2013-02-18 14:12:00,
2013-02-18 16:22:00,42.1,30.4,30.12,North,360,6.0,8.0,63,0.00,,,0.00,102,Wunderground v.1.15,2013-02-18 14:22:00,
2013-02-18 16:32:00,42.0,31.8,30.12,North,360,7.0,9.0,67,0.00,,,0.00,97,Wunderground v.1.15,2013-02-18 14:32:00,
2013-02-18 16:42:00,41.7,31.5,30.11,NE,34,10.0,10.0,67,0.00,,,0.00,84,Wunderground v.1.15,2013-02-18 14:42:00,
2013-02-18 16:52:00,41.4,31.6,30.11,NE,34,9.0,10.0,68,0.00,,,0.00,69,Wunderground v.1.15,2013-02-18 14:52:00,
2013-02-18 17:02:00,41.3,33.0,30.11,NNW,333,9.0,13.0,72,0.00,,,0.00,56,Wunderground v.1.15,2013-02-18 15:02:00,
2013-02-18 17:12:00,41.1,32.4,30.12,North,9,8.0,11.0,71,0.00,,,0.00,28,Wunderground v.1.15,2013-02-18 15:12:00,
2013-02-18 17:22:00,40.9,32.6,30.12,NNE,31,9.0,9.0,72,0.00,,,0.00,16,Wunderground v.1.15,2013-02-18 15:22:00,
2013-02-18 17:32:00,40.8,32.5,30.12,NNE,19,7.0,8.0,72,0.00,,,0.00,5,Wunderground v.1.15,2013-02-18 15:32:00,
2013-02-18 17:42:00,40.2,31.9,30.12,NNE,26,8.0,8.0,72,0.00,,,0.00,0,Wunderground v.1.15,2013-02-18 15:42:00,
2013-02-18 17:52:00,40.1,32.1,30.13,NE,35,7.0,7.0,73,0.00,,,0.00,0,Wunderground v.1.15,2013-02-18 15:52:00,
2013-02-18 18:02:00,40.0,33.0,30.13,North,11,7.0,7.0,76,0.00,,,0.00,0,Wunderground v.1.15,2013-02-18 16:02:00,
2013-02-18 18:12:00,39.9,33.3,30.13,North,5,8.0,9.0,77,0.00,,,0.00,0,Wunderground v.1.15,2013-02-18 16:12:00,
2013-02-18 18:22:00,39.5,32.9,30.13,NNW,348,10.0,11.0,77,0.00,,,0.00,0,Wunderground v.1.15,2013-02-18 16:22:00,
2013-02-18 18:32:00,39.4,32.8,30.14,NE,34,11.0,11.0,77,0.00,,,0.00,0,Wunderground v.1.15,2013-02-18 16:32:00,
2013-02-18 18:42:00,39.5,32.9,30.14,NNW,339,8.0,8.0,77,0.00,,,0.00,0,Wunderground v.1.15,2013-02-18 16:42:00,
2013-02-18 18:52:00,39.7,33.4,30.14,NNE,26,7.0,8.0,78,0.00,,,0.00,0,Wunderground v.1.15,2013-02-18 16:52:00,
2013-02-18 19:02:00,39.4,33.1,30.14,North,5,9.0,9.0,78,0.00,,,0.00,0,Wunderground v.1.15,2013-02-18 17:02:00,
2013-02-18 19:12:00,39.4,33.1,30.14,NNW,344,9.0,9.0,78,0.00,,,0.00,0,Wunderground v.1.15,2013-02-18 17:12:00,
2013-02-18 19:22:00,39.2,32.9,30.13,NNE,17,8.0,9.0,78,0.00,,,0.00,0,Wunderground v.1.15,2013-02-18 17:22:00,
2013-02-18 19:32:00,39.1,32.8,30.13,NNE,21,7.0,13.0,78,0.00,,,0.00,0,Wunderground v.1.15,2013-02-18 17:32:00,
2013-02-18 19:42:00,39.1,33.1,30.14,North,355,8.0,8.0,79,0.00,,,0.00,0,Wunderground v.1.15,2013-02-18 17:42:00,
2013-02-18 19:52:00,39.2,34.2,30.14,NE,47,7.0,7.0,82,0.00,,,0.00,0,Wunderground v.1.15,2013-02-18 17:52:00,
2013-02-18 20:02:00,38.8,33.2,30.14,NNE,33,5.0,6.0,80,0.00,,,0.00,0,Wunderground v.1.15,2013-02-18 18:02:00,
2013-02-18 20:12:00,38.8,33.5,30.14,North,349,8.0,8.0,81,0.00,,,0.00,0,Wunderground v.1.15,2013-02-18 18:12:00,
2013-02-18 20:22:00,38.7,33.1,30.13,NNE,15,7.0,7.0,80,0.00,,,0.00,0,Wunderground v.1.15,2013-02-18 18:22:00,
2013-02-18 20:32:00,38.5,32.9,30.14,NE,39,6.0,8.0,80,0.00,,,0.00,0,Wunderground v.1.15,2013-02-18 18:32:00,
2013-02-18 20:42:00,38.4,32.8,30.13,North,11,8.0,8.0,80,0.00,,,0.00,0,Wunderground v.1.15,2013-02-18 18:42:00,
2013-02-18 20:52:00,38.5,32.9,30.13,NNE,22,7.0,10.0,80,0.00,,,0.00,0,Wunderground v.1.15,2013-02-18 18:52:00,
2013-02-18 21:02:00,38.4,32.8,30.13,NE,36,7.0,7.0,80,0.00,,,0.00,0,Wunderground v.1.15,2013-02-18 19:02:00,
2013-02-18 21:12:00,38.4,32.8,30.14,NE,40,4.0,4.0,80,0.00,,,0.00,0,Wunderground v.1.15,2013-02-18 19:12:00,
2013-02-18 21:22:00,38.2,32.9,30.13,North,5,5.0,5.0,81,0.00,,,0.00,0,Wunderground v.1.15,2013-02-18 19:22:00,
2013-02-18 21:32:00,38.2,32.6,30.14,ENE,66,4.0,5.0,80,0.00,,,0.00,0,Wunderground v.1.15,2013-02-18 19:32:00,
2013-02-18 21:42:00,38.2,32.9,30.14,NE,46,6.0,6.0,81,0.00,,,0.00,0,Wunderground v.1.15,2013-02-18 19:42:00,
2013-02-18 21:52:00,38.0,32.4,30.14,NE,42,5.0,5.0,80,0.00,,,0.00,0,Wunderground v.1.15,2013-02-18 19:52:00,
2013-02-18 22:02:00,38.0,32.4,30.14,ENE,65,5.0,5.0,80,0.00,,,0.00,0,Wunderground v.1.15,2013-02-18 20:02:00,
2013-02-18 22:22:00,38.0,32.4,30.14,NE,49,6.0,6.0,80,0.00,,,0.00,0,Wunderground v.1.15,2013-02-18 20:22:00,
2013-02-18 22:32:00,38.1,32.5,30.13,NE,45,5.0,5.0,80,0.00,,,0.00,0,Wunderground v.1.15,2013-02-18 20:32:00,
2013-02-18 22:42:00,38.0,32.4,30.13,East,80,5.0,6.0,80,0.00,,,0.00,0,Wunderground v.1.15,2013-02-18 20:42:00,
2013-02-18 22:52:00,37.9,32.3,30.13,NE,43,4.0,5.0,80,0.00,,,0.00,0,Wunderground v.1.15,2013-02-18 20:52:00,
2013-02-18 23:02:00,37.9,32.3,30.13,NNE,25,5.0,5.0,80,0.00,,,0.00,0,Wunderground v.1.15,2013-02-18 21:02:00,
2013-02-18 23:12:00,37.8,32.8,30.12,NE,38,4.0,7.0,82,0.00,,,0.00,0,Wunderground v.1.15,2013-02-18 21:12:00,
2013-02-18 23:32:00,37.6,32.3,30.12,NNE,22,5.0,5.0,81,0.00,,,0.00,0,Wunderground v.1.15,2013-02-18 21:32:00,
2013-02-18 23:42:00,37.5,32.2,30.12,North,9,5.0,5.0,81,0.00,,,0.00,0,Wunderground v.1.15,2013-02-18 21:42:00,
2013-02-18 23:52:00,37.4,32.4,30.12,NE,39,5.0,5.0,82,0.00,,,0.00,0,Wunderground v.1.15,2013-02-18 21:52:00,